TimeMDT,TemperatureF,Dew PointF,Humidity,Sea Level PressureIn,VisibilityMPH,Wind Direction,Wind SpeedMPH,Gust SpeedMPH,PrecipitationIn,Events,Conditions,WindDirDegrees,DateUTC
12:53 AM,73.9,28.0,18,29.74,10.0,ESE,5.8,-,N/A,,Clear,110,2013-07-11 06:53:00
1:38 AM,75.2,28.4,18,30.00,10.0,East,15.0,-,N/A,,Clear,90,2013-07-11 07:38:00
1:53 AM,75.9,27.0,16,29.75,10.0,East,11.5,-,N/A,,Clear,100,2013-07-11 07:53:00
2:53 AM,79.0,36.0,21,29.74,10.0,East,12.7,-,N/A,,Clear,100,2013-07-11 08:53:00
3:53 AM,75.0,39.0,27,29.76,10.0,ESE,10.4,-,N/A,,Clear,120,2013-07-11 09:53:00
4:53 AM,72.0,39.0,30,29.78,10.0,SE,6.9,-,N/A,,Clear,130,2013-07-11 10:53:00
5:53 AM,73.0,39.0,29,29.78,10.0,SE,12.7,-,N/A,,Clear,130,2013-07-11 11:53:00
6:53 AM,73.9,37.9,27,29.80,10.0,ESE,10.4,-,N/A,,Clear,120,2013-07-11 12:53:00
7:53 AM,78.1,39.9,25,29.81,10.0,ESE,12.7,-,N/A,,Clear,120,2013-07-11 13:53:00
8:53 AM,81.0,43.0,26,29.82,10.0,SE,13.8,-,N/A,,Clear,130,2013-07-11 14:53:00
9:53 AM,86.0,45.0,24,29.81,10.0,SE,13.8,-,N/A,,Clear,140,2013-07-11 15:53:00
10:53 AM,90.0,45.0,21,29.80,10.0,SSE,15.0,-,N/A,,Clear,160,2013-07-11 16:53:00
11:53 AM,91.0,45.0,20,29.77,10.0,South,6.9,19.6,N/A,,Clear,180,2013-07-11 17:53:00
12:53 PM,93.9,44.1,18,29.75,10.0,SW,5.8,27.6,N/A,,Partly Cloudy,220,2013-07-11 18:53:00
1:53 PM,97.0,45.0,17,29.71,10.0,West,9.2,16.1,N/A,,Partly Cloudy,270,2013-07-11 19:53:00
2:53 PM,97.0,43.0,16,29.68,10.0,NW,6.9,-,N/A,,Clear,310,2013-07-11 20:53:00
3:53 PM,96.1,43.0,16,29.65,10.0,WNW,10.4,17.3,N/A,,Clear,290,2013-07-11 21:53:00
4:53 PM,96.1,43.0,16,29.64,10.0,West,9.2,-,N/A,,Clear,270,2013-07-11 22:53:00
5:30 PM,87.8,51.8,29,29.92,10.0,South,19.6,42.6,N/A,,Clear,170,2013-07-11 23:30:00
5:53 PM,88.0,50.0,27,29.68,10.0,South,20.7,27.6,N/A,,Clear,170,2013-07-11 23:53:00
6:53 PM,80.1,55.9,43,29.76,8.0,South,15.0,27.6,0.00,Rain,Light Rain,180,2013-07-12 00:53:00
7:35 PM,82.4,53.6,37,30.00,10.0,WSW,17.3,23.0,0.00,,Overcast,240,2013-07-12 01:35:00
7:53 PM,82.0,52.0,35,29.78,10.0,WSW,15.0,-,0.00,,Overcast,240,2013-07-12 01:53:00
8:53 PM,73.4,57.2,57,29.85,10.0,North,8.1,-,N/A,,Overcast,360,2013-07-12 02:53:00
9:53 PM,66.0,62.1,87,29.91,5.0,ESE,10.4,-,0.07,Rain,Rain,120,2013-07-12 03:53:00
10:53 PM,66.0,62.1,87,29.88,10.0,ESE,5.8,-,0.01,,Mostly Cloudy,120,2013-07-12 04:53:00
11:53 PM,64.9,63.0,93,29.87,10.0,SE,5.8,-,N/A,,Partly Cloudy,130,2013-07-12 05:53:00